Aeroporto :
LOGIN :

Iscrizione | Disclaimer

   EN    FR    IT 

 










Sommario :    VFR   VFR Marginale   IFR   IFR Intensivo   IFR Molto Intensivo
Visibilità : 
Base nubi : 
>= 8 km
>= 3000ft
5 / 8 km
1000 / 3000 ft
1500m / 5 km
500 / 1000 ft
800 / 1500m
200 / 500 ft
< 800m
< 200 ft
Simboli :   Temporali  Nebbia  Neve Forte  Precipitazioni Forti  Vento > 20 kt
SIGMETs :   Varie  Temporali  Ghiacco  Turbolenza  Onda orograficha  Ceneri Vulcaniche







- Altitudine del aeroporto : 375 ft
- Codice IATA : MST


EHBK - Maastricht Aachen

ULTIMO METAR :
  • 191425Z AUTO 25010KT 190V290 9999 BKN043 10/03 Q1020 NOSIG

METARs OBSOLETI :
  • 191355Z AUTO 25010KT 210V310 9999 BKN042 11/04 Q1020 NOSIG
  • 191325Z AUTO 27009KT 220V320 9999 BKN029 BKN034 OVC038 10/03 Q1020 NOSIG
  • 191255Z AUTO 24010KT 200V300 9999 BKN027 OVC031 10/03 Q1020 NOSIG
  • 191225Z AUTO 24010KT 200V280 9999 BKN025 BKN030 10/03 Q1020 NOSIG
  • 191155Z AUTO 24011KT 210V290 9999 SCT023 BKN030 BKN035 09/03 Q1020 NOSIG

TAF TAF EHBK
Valido dal 19 a 12 ore il 20 a 18 ore UTC


191051Z 1912/2018 25014KT 9999 SCT020
BECMG 1921/1924 22007KT
BECMG 2009/2012 25012KT
BECMG 2015/2018 21006KT
Nessun NOTAM noto per questo aeroporto.



MetMap, La meteo Aeronautica in un colpo d'occhio ! - Copyright ORBIFLY Dicembre 2007 - Disclaimer

ORBIFLY MET'MAP TEAM :

Programmazione e sviluppo : Alexandra Zaïnal
Concezione e sviluppo : Baudouin d'Aumeries
Co-Programmazione e sviluppo : Marc-Olivier Méhu
Supporto tecnico e logistico : Manuel Goepfert
Aiuto per la traduzione : Arnaldo La Scala

Contatto : metmap@orbifly.com




FONTI E CREDITI :

   NOAA